sensor_id;sensor_type;location;lat;lon;timestamp;P1;durP1;ratioP1;P2;durP2;ratioP2
5688;SDS011;2869;50.432;8.680;2022-07-23T00:00:58;24.50;;;11.50;;
5688;SDS011;2869;50.432;8.680;2022-07-23T00:03:25;15.07;;;10.90;;
5688;SDS011;2869;50.432;8.680;2022-07-23T00:05:52;17.23;;;11.23;;
5688;SDS011;2869;50.432;8.680;2022-07-23T00:08:19;17.10;;;10.67;;
5688;SDS011;2869;50.432;8.680;2022-07-23T00:10:45;15.67;;;11.17;;
5688;SDS011;2869;50.432;8.680;2022-07-23T00:13:12;21.30;;;11.40;;
5688;SDS011;2869;50.432;8.680;2022-07-23T00:15:39;16.07;;;11.50;;
5688;SDS011;2869;50.432;8.680;2022-07-23T00:18:07;16.53;;;11.47;;
5688;SDS011;2869;50.432;8.680;2022-07-23T00:20:33;16.57;;;12.47;;
5688;SDS011;2869;50.432;8.680;2022-07-23T00:23:00;19.27;;;12.73;;
5688;SDS011;2869;50.432;8.680;2022-07-23T00:25:27;16.37;;;12.07;;
5688;SDS011;2869;50.432;8.680;2022-07-23T00:27:53;18.10;;;11.87;;
5688;SDS011;2869;50.432;8.680;2022-07-23T00:30:20;26.57;;;12.30;;
5688;SDS011;2869;50.432;8.680;2022-07-23T00:32:47;19.10;;;12.47;;
5688;SDS011;2869;50.432;8.680;2022-07-23T00:35:16;20.00;;;13.10;;
5688;SDS011;2869;50.432;8.680;2022-07-23T00:37:45;18.67;;;12.20;;
5688;SDS011;2869;50.432;8.680;2022-07-23T00:40:12;15.60;;;11.73;;
5688;SDS011;2869;50.432;8.680;2022-07-23T00:42:39;22.33;;;13.80;;
5688;SDS011;2869;50.432;8.680;2022-07-23T00:45:06;19.40;;;12.90;;
5688;SDS011;2869;50.432;8.680;2022-07-23T00:47:33;15.73;;;11.63;;
5688;SDS011;2869;50.432;8.680;2022-07-23T00:50:00;20.67;;;12.93;;
5688;SDS011;2869;50.432;8.680;2022-07-23T00:52:28;19.00;;;11.87;;
5688;SDS011;2869;50.432;8.680;2022-07-23T00:54:55;18.17;;;13.30;;
5688;SDS011;2869;50.432;8.680;2022-07-23T00:57:22;17.67;;;12.00;;
5688;SDS011;2869;50.432;8.680;2022-07-23T00:59:49;28.67;;;14.13;;
5688;SDS011;2869;50.432;8.680;2022-07-23T01:02:16;20.30;;;13.00;;
5688;SDS011;2869;50.432;8.680;2022-07-23T01:04:42;28.60;;;13.17;;
5688;SDS011;2869;50.432;8.680;2022-07-23T01:07:09;22.40;;;13.73;;
5688;SDS011;2869;50.432;8.680;2022-07-23T01:09:37;18.47;;;12.40;;
5688;SDS011;2869;50.432;8.680;2022-07-23T01:12:04;17.57;;;12.53;;
5688;SDS011;2869;50.432;8.680;2022-07-23T01:14:32;18.20;;;12.63;;
5688;SDS011;2869;50.432;8.680;2022-07-23T01:16:59;19.83;;;12.40;;
5688;SDS011;2869;50.432;8.680;2022-07-23T01:19:26;20.53;;;12.80;;
5688;SDS011;2869;50.432;8.680;2022-07-23T01:21:53;18.57;;;13.23;;
5688;SDS011;2869;50.432;8.680;2022-07-23T01:24:22;16.83;;;11.90;;
5688;SDS011;2869;50.432;8.680;2022-07-23T01:26:50;15.90;;;11.87;;
5688;SDS011;2869;50.432;8.680;2022-07-23T01:29:16;21.80;;;12.80;;
5688;SDS011;2869;50.432;8.680;2022-07-23T01:31:44;19.40;;;13.00;;
5688;SDS011;2869;50.432;8.680;2022-07-23T01:34:11;28.70;;;13.47;;
5688;SDS011;2869;50.432;8.680;2022-07-23T01:36:37;18.67;;;12.43;;
5688;SDS011;2869;50.432;8.680;2022-07-23T01:39:05;18.77;;;12.77;;
5688;SDS011;2869;50.432;8.680;2022-07-23T01:41:34;18.33;;;12.30;;
5688;SDS011;2869;50.432;8.680;2022-07-23T01:44:00;20.73;;;12.87;;
5688;SDS011;2869;50.432;8.680;2022-07-23T01:46:27;19.87;;;13.27;;
5688;SDS011;2869;50.432;8.680;2022-07-23T01:48:54;26.30;;;13.73;;
5688;SDS011;2869;50.432;8.680;2022-07-23T01:51:20;23.43;;;13.77;;
5688;SDS011;2869;50.432;8.680;2022-07-23T01:53:47;20.63;;;13.63;;
5688;SDS011;2869;50.432;8.680;2022-07-23T01:56:14;19.70;;;13.67;;
5688;SDS011;2869;50.432;8.680;2022-07-23T01:58:42;20.70;;;13.37;;
5688;SDS011;2869;50.432;8.680;2022-07-23T02:01:08;22.80;;;14.43;;
5688;SDS011;2869;50.432;8.680;2022-07-23T02:03:35;20.43;;;13.90;;
5688;SDS011;2869;50.432;8.680;2022-07-23T02:06:02;23.10;;;13.57;;
5688;SDS011;2869;50.432;8.680;2022-07-23T02:08:29;19.80;;;13.50;;
5688;SDS011;2869;50.432;8.680;2022-07-23T02:10:55;17.83;;;12.87;;
5688;SDS011;2869;50.432;8.680;2022-07-23T02:13:22;23.87;;;14.27;;
5688;SDS011;2869;50.432;8.680;2022-07-23T02:15:50;23.23;;;13.80;;
5688;SDS011;2869;50.432;8.680;2022-07-23T02:18:17;22.10;;;13.80;;
5688;SDS011;2869;50.432;8.680;2022-07-23T02:20:43;19.53;;;13.80;;
5688;SDS011;2869;50.432;8.680;2022-07-23T02:23:10;21.13;;;14.10;;
5688;SDS011;2869;50.432;8.680;2022-07-23T02:25:37;24.17;;;14.50;;
5688;SDS011;2869;50.432;8.680;2022-07-23T02:28:03;20.27;;;14.37;;
5688;SDS011;2869;50.432;8.680;2022-07-23T02:30:30;21.50;;;13.20;;
5688;SDS011;2869;50.432;8.680;2022-07-23T02:32:58;22.80;;;13.60;;
5688;SDS011;2869;50.432;8.680;2022-07-23T02:35:24;22.37;;;14.00;;
5688;SDS011;2869;50.432;8.680;2022-07-23T02:37:51;25.37;;;14.00;;
5688;SDS011;2869;50.432;8.680;2022-07-23T02:40:18;23.87;;;13.90;;
5688;SDS011;2869;50.432;8.680;2022-07-23T02:42:45;20.47;;;12.97;;
5688;SDS011;2869;50.432;8.680;2022-07-23T02:45:12;19.70;;;13.90;;
5688;SDS011;2869;50.432;8.680;2022-07-23T02:47:39;22.83;;;14.70;;
5688;SDS011;2869;50.432;8.680;2022-07-23T02:50:07;21.07;;;14.40;;
5688;SDS011;2869;50.432;8.680;2022-07-23T02:52:34;22.63;;;14.03;;
5688;SDS011;2869;50.432;8.680;2022-07-23T02:55:01;25.67;;;14.03;;
5688;SDS011;2869;50.432;8.680;2022-07-23T02:57:28;20.70;;;13.50;;
5688;SDS011;2869;50.432;8.680;2022-07-23T02:59:54;20.40;;;13.80;;
5688;SDS011;2869;50.432;8.680;2022-07-23T03:02:21;21.93;;;14.10;;
5688;SDS011;2869;50.432;8.680;2022-07-23T03:04:48;29.80;;;14.77;;
5688;SDS011;2869;50.432;8.680;2022-07-23T03:07:16;21.93;;;13.90;;
5688;SDS011;2869;50.432;8.680;2022-07-23T03:09:43;18.67;;;13.17;;
5688;SDS011;2869;50.432;8.680;2022-07-23T03:12:10;22.90;;;14.10;;
5688;SDS011;2869;50.432;8.680;2022-07-23T03:14:36;24.07;;;14.10;;
5688;SDS011;2869;50.432;8.680;2022-07-23T03:17:03;24.83;;;14.17;;
5688;SDS011;2869;50.432;8.680;2022-07-23T03:19:29;22.93;;;13.80;;
5688;SDS011;2869;50.432;8.680;2022-07-23T03:21:56;22.30;;;13.40;;
5688;SDS011;2869;50.432;8.680;2022-07-23T03:24:24;20.70;;;14.03;;
5688;SDS011;2869;50.432;8.680;2022-07-23T03:27:11;22.00;;;12.90;;
5688;SDS011;2869;50.432;8.680;2022-07-23T03:29:38;20.13;;;13.30;;
5688;SDS011;2869;50.432;8.680;2022-07-23T03:32:05;19.03;;;13.50;;
5688;SDS011;2869;50.432;8.680;2022-07-23T03:34:32;20.50;;;13.63;;
5688;SDS011;2869;50.432;8.680;2022-07-23T03:36:59;22.43;;;13.30;;
5688;SDS011;2869;50.432;8.680;2022-07-23T03:39:27;19.60;;;13.33;;
5688;SDS011;2869;50.432;8.680;2022-07-23T03:41:53;24.23;;;13.43;;
5688;SDS011;2869;50.432;8.680;2022-07-23T03:44:20;20.00;;;13.00;;
5688;SDS011;2869;50.432;8.680;2022-07-23T03:46:46;21.60;;;14.03;;
5688;SDS011;2869;50.432;8.680;2022-07-23T03:49:13;21.03;;;14.13;;
5688;SDS011;2869;50.432;8.680;2022-07-23T03:51:40;21.57;;;14.10;;
5688;SDS011;2869;50.432;8.680;2022-07-23T03:54:07;22.80;;;15.17;;
5688;SDS011;2869;50.432;8.680;2022-07-23T03:56:35;24.73;;;14.60;;
5688;SDS011;2869;50.432;8.680;2022-07-23T03:59:02;25.83;;;15.80;;
5688;SDS011;2869;50.432;8.680;2022-07-23T04:01:28;26.17;;;15.37;;
5688;SDS011;2869;50.432;8.680;2022-07-23T04:03:55;31.13;;;15.23;;
5688;SDS011;2869;50.432;8.680;2022-07-23T04:06:22;23.10;;;15.07;;
5688;SDS011;2869;50.432;8.680;2022-07-23T04:08:49;24.77;;;15.57;;
5688;SDS011;2869;50.432;8.680;2022-07-23T04:11:15;21.80;;;14.63;;
5688;SDS011;2869;50.432;8.680;2022-07-23T04:13:43;28.03;;;15.00;;
5688;SDS011;2869;50.432;8.680;2022-07-23T04:16:10;28.70;;;15.87;;
5688;SDS011;2869;50.432;8.680;2022-07-23T04:18:37;29.60;;;16.17;;
5688;SDS011;2869;50.432;8.680;2022-07-23T04:21:03;27.77;;;15.47;;
5688;SDS011;2869;50.432;8.680;2022-07-23T04:23:30;26.97;;;15.77;;
5688;SDS011;2869;50.432;8.680;2022-07-23T04:25:57;30.80;;;17.00;;
5688;SDS011;2869;50.432;8.680;2022-07-23T04:28:24;30.53;;;16.90;;
5688;SDS011;2869;50.432;8.680;2022-07-23T04:30:52;24.13;;;15.43;;
5688;SDS011;2869;50.432;8.680;2022-07-23T04:33:18;26.13;;;16.00;;
5688;SDS011;2869;50.432;8.680;2022-07-23T04:35:45;27.83;;;17.20;;
5688;SDS011;2869;50.432;8.680;2022-07-23T04:38:12;24.47;;;16.67;;
5688;SDS011;2869;50.432;8.680;2022-07-23T04:40:38;32.40;;;16.37;;
5688;SDS011;2869;50.432;8.680;2022-07-23T04:43:05;28.40;;;17.23;;
5688;SDS011;2869;50.432;8.680;2022-07-23T04:45:32;26.40;;;15.83;;
5688;SDS011;2869;50.432;8.680;2022-07-23T04:48:00;28.23;;;16.83;;
5688;SDS011;2869;50.432;8.680;2022-07-23T04:50:26;22.67;;;15.87;;
5688;SDS011;2869;50.432;8.680;2022-07-23T04:52:53;24.60;;;15.93;;
5688;SDS011;2869;50.432;8.680;2022-07-23T04:55:19;28.47;;;16.50;;
5688;SDS011;2869;50.432;8.680;2022-07-23T04:57:46;24.87;;;16.20;;
5688;SDS011;2869;50.432;8.680;2022-07-23T05:00:13;26.27;;;16.30;;
5688;SDS011;2869;50.432;8.680;2022-07-23T05:02:40;24.23;;;16.03;;
5688;SDS011;2869;50.432;8.680;2022-07-23T05:05:08;26.57;;;14.73;;
5688;SDS011;2869;50.432;8.680;2022-07-23T05:07:35;25.00;;;14.93;;
5688;SDS011;2869;50.432;8.680;2022-07-23T05:10:02;28.23;;;15.17;;
5688;SDS011;2869;50.432;8.680;2022-07-23T05:12:29;24.90;;;15.17;;
5688;SDS011;2869;50.432;8.680;2022-07-23T05:14:55;22.80;;;15.00;;
5688;SDS011;2869;50.432;8.680;2022-07-23T05:17:22;23.03;;;14.27;;
5688;SDS011;2869;50.432;8.680;2022-07-23T05:19:49;20.23;;;13.60;;
5688;SDS011;2869;50.432;8.680;2022-07-23T05:22:17;29.90;;;14.27;;
5688;SDS011;2869;50.432;8.680;2022-07-23T05:24:43;19.97;;;13.83;;
5688;SDS011;2869;50.432;8.680;2022-07-23T05:27:10;25.80;;;15.00;;
5688;SDS011;2869;50.432;8.680;2022-07-23T05:29:37;22.03;;;12.83;;
5688;SDS011;2869;50.432;8.680;2022-07-23T05:32:04;22.43;;;14.43;;
5688;SDS011;2869;50.432;8.680;2022-07-23T05:34:31;19.13;;;13.83;;
5688;SDS011;2869;50.432;8.680;2022-07-23T05:36:57;16.47;;;11.43;;
5688;SDS011;2869;50.432;8.680;2022-07-23T05:39:25;20.00;;;11.80;;
5688;SDS011;2869;50.432;8.680;2022-07-23T05:41:52;17.43;;;11.50;;
5688;SDS011;2869;50.432;8.680;2022-07-23T05:44:19;20.50;;;13.10;;
5688;SDS011;2869;50.432;8.680;2022-07-23T05:46:47;16.23;;;11.07;;
5688;SDS011;2869;50.432;8.680;2022-07-23T05:49:13;13.97;;;10.33;;
5688;SDS011;2869;50.432;8.680;2022-07-23T05:51:40;14.77;;;11.00;;
5688;SDS011;2869;50.432;8.680;2022-07-23T05:54:07;18.70;;;11.20;;
5688;SDS011;2869;50.432;8.680;2022-07-23T05:56:35;15.23;;;9.33;;
5688;SDS011;2869;50.432;8.680;2022-07-23T05:59:01;16.90;;;10.30;;
5688;SDS011;2869;50.432;8.680;2022-07-23T06:01:28;16.70;;;11.10;;
5688;SDS011;2869;50.432;8.680;2022-07-23T06:03:55;19.20;;;10.33;;
5688;SDS011;2869;50.432;8.680;2022-07-23T06:06:21;19.37;;;11.07;;
5688;SDS011;2869;50.432;8.680;2022-07-23T06:08:48;12.90;;;9.77;;
5688;SDS011;2869;50.432;8.680;2022-07-23T06:11:15;13.10;;;9.23;;
5688;SDS011;2869;50.432;8.680;2022-07-23T06:13:43;17.90;;;10.40;;
5688;SDS011;2869;50.432;8.680;2022-07-23T06:16:09;14.83;;;9.47;;
5688;SDS011;2869;50.432;8.680;2022-07-23T06:18:36;16.37;;;10.43;;
5688;SDS011;2869;50.432;8.680;2022-07-23T06:21:03;18.90;;;10.00;;
5688;SDS011;2869;50.432;8.680;2022-07-23T06:23:30;12.30;;;9.53;;
5688;SDS011;2869;50.432;8.680;2022-07-23T06:25:56;9.97;;;7.80;;
5688;SDS011;2869;50.432;8.680;2022-07-23T06:28:23;13.63;;;8.57;;
5688;SDS011;2869;50.432;8.680;2022-07-23T06:30:51;12.60;;;8.37;;
5688;SDS011;2869;50.432;8.680;2022-07-23T06:33:17;12.33;;;8.37;;
5688;SDS011;2869;50.432;8.680;2022-07-23T06:35:44;12.63;;;9.17;;
5688;SDS011;2869;50.432;8.680;2022-07-23T06:38:11;12.00;;;8.93;;
5688;SDS011;2869;50.432;8.680;2022-07-23T06:40:37;14.90;;;9.17;;
5688;SDS011;2869;50.432;8.680;2022-07-23T06:43:04;15.60;;;8.17;;
5688;SDS011;2869;50.432;8.680;2022-07-23T06:45:31;9.60;;;8.20;;
5688;SDS011;2869;50.432;8.680;2022-07-23T06:47:59;10.47;;;8.10;;
5688;SDS011;2869;50.432;8.680;2022-07-23T06:50:27;9.80;;;8.80;;
5688;SDS011;2869;50.432;8.680;2022-07-23T06:52:53;14.33;;;8.23;;
5688;SDS011;2869;50.432;8.680;2022-07-23T06:55:20;10.17;;;7.40;;
5688;SDS011;2869;50.432;8.680;2022-07-23T06:57:47;14.97;;;8.20;;
5688;SDS011;2869;50.432;8.680;2022-07-23T07:00:14;11.50;;;7.90;;
5688;SDS011;2869;50.432;8.680;2022-07-23T07:02:40;10.13;;;7.20;;
5688;SDS011;2869;50.432;8.680;2022-07-23T07:05:08;18.30;;;8.20;;
5688;SDS011;2869;50.432;8.680;2022-07-23T07:07:35;9.17;;;7.30;;
5688;SDS011;2869;50.432;8.680;2022-07-23T07:10:02;10.80;;;7.87;;
5688;SDS011;2869;50.432;8.680;2022-07-23T07:12:29;17.63;;;8.90;;
5688;SDS011;2869;50.432;8.680;2022-07-23T07:14:55;8.87;;;7.20;;
5688;SDS011;2869;50.432;8.680;2022-07-23T07:17:22;11.10;;;7.47;;
5688;SDS011;2869;50.432;8.680;2022-07-23T07:19:49;7.57;;;6.83;;
5688;SDS011;2869;50.432;8.680;2022-07-23T07:22:17;7.50;;;6.80;;
5688;SDS011;2869;50.432;8.680;2022-07-23T07:24:44;12.57;;;6.77;;
5688;SDS011;2869;50.432;8.680;2022-07-23T07:27:10;11.10;;;7.10;;
5688;SDS011;2869;50.432;8.680;2022-07-23T07:29:37;8.17;;;7.37;;
5688;SDS011;2869;50.432;8.680;2022-07-23T07:32:04;8.53;;;6.90;;
5688;SDS011;2869;50.432;8.680;2022-07-23T07:34:31;10.47;;;6.80;;
5688;SDS011;2869;50.432;8.680;2022-07-23T07:36:58;11.20;;;7.13;;
5688;SDS011;2869;50.432;8.680;2022-07-23T07:39:26;11.43;;;6.87;;
5688;SDS011;2869;50.432;8.680;2022-07-23T07:41:53;13.17;;;7.80;;
5688;SDS011;2869;50.432;8.680;2022-07-23T07:44:20;12.60;;;7.83;;
5688;SDS011;2869;50.432;8.680;2022-07-23T07:46:46;8.70;;;6.73;;
5688;SDS011;2869;50.432;8.680;2022-07-23T07:49:13;8.67;;;7.40;;
5688;SDS011;2869;50.432;8.680;2022-07-23T07:51:42;9.93;;;7.77;;
5688;SDS011;2869;50.432;8.680;2022-07-23T07:54:08;12.10;;;7.60;;
5688;SDS011;2869;50.432;8.680;2022-07-23T07:56:36;7.60;;;6.40;;
5688;SDS011;2869;50.432;8.680;2022-07-23T07:59:03;8.00;;;6.70;;
5688;SDS011;2869;50.432;8.680;2022-07-23T08:01:30;9.90;;;6.70;;
5688;SDS011;2869;50.432;8.680;2022-07-23T08:03:57;9.30;;;6.47;;
5688;SDS011;2869;50.432;8.680;2022-07-23T08:06:24;13.00;;;6.77;;
5688;SDS011;2869;50.432;8.680;2022-07-23T08:08:51;8.63;;;7.43;;
5688;SDS011;2869;50.432;8.680;2022-07-23T08:11:17;12.33;;;7.13;;
5688;SDS011;2869;50.432;8.680;2022-07-23T08:13:45;8.93;;;6.20;;
5688;SDS011;2869;50.432;8.680;2022-07-23T08:16:12;7.73;;;6.43;;
5688;SDS011;2869;50.432;8.680;2022-07-23T08:18:39;8.20;;;6.60;;
5688;SDS011;2869;50.432;8.680;2022-07-23T08:21:05;6.77;;;6.10;;
5688;SDS011;2869;50.432;8.680;2022-07-23T08:23:32;9.83;;;6.23;;
5688;SDS011;2869;50.432;8.680;2022-07-23T08:25:59;7.70;;;6.00;;
5688;SDS011;2869;50.432;8.680;2022-07-23T08:28:26;7.17;;;5.70;;
5688;SDS011;2869;50.432;8.680;2022-07-23T08:30:54;6.77;;;5.40;;
5688;SDS011;2869;50.432;8.680;2022-07-23T08:33:21;8.10;;;6.20;;
5688;SDS011;2869;50.432;8.680;2022-07-23T08:35:48;8.03;;;6.07;;
5688;SDS011;2869;50.432;8.680;2022-07-23T08:38:18;6.93;;;5.50;;
5688;SDS011;2869;50.432;8.680;2022-07-23T08:40:47;12.50;;;6.80;;
5688;SDS011;2869;50.432;8.680;2022-07-23T08:43:16;6.90;;;5.63;;
5688;SDS011;2869;50.432;8.680;2022-07-23T08:45:44;7.70;;;6.20;;
5688;SDS011;2869;50.432;8.680;2022-07-23T08:48:15;7.00;;;5.27;;
5688;SDS011;2869;50.432;8.680;2022-07-23T08:50:44;6.40;;;5.70;;
5688;SDS011;2869;50.432;8.680;2022-07-23T08:53:12;9.63;;;6.03;;
5688;SDS011;2869;50.432;8.680;2022-07-23T08:55:39;8.57;;;5.73;;
5688;SDS011;2869;50.432;8.680;2022-07-23T08:58:09;8.23;;;5.80;;
5688;SDS011;2869;50.432;8.680;2022-07-23T09:00:35;11.67;;;5.23;;
5688;SDS011;2869;50.432;8.680;2022-07-23T09:03:02;7.20;;;5.10;;
5688;SDS011;2869;50.432;8.680;2022-07-23T09:05:30;5.50;;;5.00;;
5688;SDS011;2869;50.432;8.680;2022-07-23T09:08:07;6.83;;;5.80;;
5688;SDS011;2869;50.432;8.680;2022-07-23T09:10:45;6.07;;;5.30;;
5688;SDS011;2869;50.432;8.680;2022-07-23T09:16:08;6.03;;;4.70;;
5688;SDS011;2869;50.432;8.680;2022-07-23T09:18:38;6.80;;;5.13;;
5688;SDS011;2869;50.432;8.680;2022-07-23T09:21:11;10.13;;;5.00;;
5688;SDS011;2869;50.432;8.680;2022-07-23T09:23:40;6.73;;;5.03;;
5688;SDS011;2869;50.432;8.680;2022-07-23T09:26:22;6.63;;;6.00;;
5688;SDS011;2869;50.432;8.680;2022-07-23T09:28:56;7.67;;;5.63;;
5688;SDS011;2869;50.432;8.680;2022-07-23T09:31:25;9.67;;;5.33;;
5688;SDS011;2869;50.432;8.680;2022-07-23T09:34:02;6.87;;;5.37;;
5688;SDS011;2869;50.432;8.680;2022-07-23T09:36:35;5.50;;;4.93;;
5688;SDS011;2869;50.432;8.680;2022-07-23T09:39:02;7.43;;;5.03;;
5688;SDS011;2869;50.432;8.680;2022-07-23T09:41:33;6.53;;;5.60;;
5688;SDS011;2869;50.432;8.680;2022-07-23T09:44:06;6.57;;;5.60;;
5688;SDS011;2869;50.432;8.680;2022-07-23T09:46:34;7.97;;;5.87;;
5688;SDS011;2869;50.432;8.680;2022-07-23T09:49:00;9.40;;;5.20;;
5688;SDS011;2869;50.432;8.680;2022-07-23T09:51:44;6.03;;;5.43;;
5688;SDS011;2869;50.432;8.680;2022-07-23T09:54:20;8.10;;;4.97;;
5688;SDS011;2869;50.432;8.680;2022-07-23T09:56:48;6.97;;;5.30;;
5688;SDS011;2869;50.432;8.680;2022-07-23T09:59:15;5.13;;;4.63;;
5688;SDS011;2869;50.432;8.680;2022-07-23T10:01:43;7.00;;;4.83;;
5688;SDS011;2869;50.432;8.680;2022-07-23T10:04:11;4.70;;;4.20;;
5688;SDS011;2869;50.432;8.680;2022-07-23T10:06:38;5.37;;;4.87;;
5688;SDS011;2869;50.432;8.680;2022-07-23T10:09:08;6.07;;;4.60;;
5688;SDS011;2869;50.432;8.680;2022-07-23T10:11:38;5.80;;;5.20;;
5688;SDS011;2869;50.432;8.680;2022-07-23T10:14:05;5.83;;;4.60;;
5688;SDS011;2869;50.432;8.680;2022-07-23T10:16:31;8.93;;;4.27;;
5688;SDS011;2869;50.432;8.680;2022-07-23T10:18:58;6.57;;;5.30;;
5688;SDS011;2869;50.432;8.680;2022-07-23T10:21:27;5.53;;;4.53;;
5688;SDS011;2869;50.432;8.680;2022-07-23T10:24:05;5.60;;;4.63;;
5688;SDS011;2869;50.432;8.680;2022-07-23T10:26:42;5.47;;;4.97;;
5688;SDS011;2869;50.432;8.680;2022-07-23T10:29:19;5.20;;;4.57;;
5688;SDS011;2869;50.432;8.680;2022-07-23T10:31:56;5.23;;;4.80;;
5688;SDS011;2869;50.432;8.680;2022-07-23T10:34:30;5.43;;;4.73;;
5688;SDS011;2869;50.432;8.680;2022-07-23T10:37:07;5.13;;;4.63;;
5688;SDS011;2869;50.432;8.680;2022-07-23T10:39:43;7.00;;;5.00;;
5688;SDS011;2869;50.432;8.680;2022-07-23T10:42:10;5.63;;;5.13;;
5688;SDS011;2869;50.432;8.680;2022-07-23T10:44:39;5.63;;;5.13;;
5688;SDS011;2869;50.432;8.680;2022-07-23T10:47:08;7.40;;;5.93;;
5688;SDS011;2869;50.432;8.680;2022-07-23T10:50:16;6.73;;;5.00;;
5688;SDS011;2869;50.432;8.680;2022-07-23T10:52:52;5.70;;;5.20;;
5688;SDS011;2869;50.432;8.680;2022-07-23T10:55:42;6.23;;;5.53;;
5688;SDS011;2869;50.432;8.680;2022-07-23T10:58:10;10.23;;;5.40;;
5688;SDS011;2869;50.432;8.680;2022-07-23T11:00:42;6.47;;;5.87;;
5688;SDS011;2869;50.432;8.680;2022-07-23T11:05:57;7.90;;;6.07;;
5688;SDS011;2869;50.432;8.680;2022-07-23T11:08:24;9.13;;;6.33;;
5688;SDS011;2869;50.432;8.680;2022-07-23T11:10:56;12.30;;;6.00;;
5688;SDS011;2869;50.432;8.680;2022-07-23T11:13:39;7.40;;;6.23;;
5688;SDS011;2869;50.432;8.680;2022-07-23T11:16:14;6.27;;;5.67;;
5688;SDS011;2869;50.432;8.680;2022-07-23T11:21:40;6.13;;;5.53;;
5688;SDS011;2869;50.432;8.680;2022-07-23T11:24:17;9.93;;;5.90;;
5688;SDS011;2869;50.432;8.680;2022-07-23T11:26:47;6.53;;;5.70;;
5688;SDS011;2869;50.432;8.680;2022-07-23T11:29:38;7.83;;;6.60;;
5688;SDS011;2869;50.432;8.680;2022-07-23T11:32:17;7.73;;;5.73;;
5688;SDS011;2869;50.432;8.680;2022-07-23T11:34:54;7.33;;;6.40;;
5688;SDS011;2869;50.432;8.680;2022-07-23T11:40:11;6.17;;;5.57;;
5688;SDS011;2869;50.432;8.680;2022-07-23T11:42:51;6.57;;;6.00;;
5688;SDS011;2869;50.432;8.680;2022-07-23T11:45:22;9.30;;;6.27;;
5688;SDS011;2869;50.432;8.680;2022-07-23T11:47:50;8.67;;;6.80;;
5688;SDS011;2869;50.432;8.680;2022-07-23T11:50:17;8.07;;;6.20;;
5688;SDS011;2869;50.432;8.680;2022-07-23T11:52:44;12.97;;;10.10;;
5688;SDS011;2869;50.432;8.680;2022-07-23T11:55:11;9.17;;;8.23;;
5688;SDS011;2869;50.432;8.680;2022-07-23T11:57:42;13.17;;;7.10;;
5688;SDS011;2869;50.432;8.680;2022-07-23T12:00:10;6.57;;;5.70;;
5688;SDS011;2869;50.432;8.680;2022-07-23T12:02:38;6.30;;;5.70;;
5688;SDS011;2869;50.432;8.680;2022-07-23T12:05:07;6.77;;;6.17;;
5688;SDS011;2869;50.432;8.680;2022-07-23T12:07:37;8.17;;;6.63;;
5688;SDS011;2869;50.432;8.680;2022-07-23T12:10:08;7.23;;;6.23;;
5688;SDS011;2869;50.432;8.680;2022-07-23T12:12:37;5.73;;;5.23;;
5688;SDS011;2869;50.432;8.680;2022-07-23T12:15:06;7.27;;;6.57;;
5688;SDS011;2869;50.432;8.680;2022-07-23T12:17:35;6.67;;;5.97;;
5688;SDS011;2869;50.432;8.680;2022-07-23T12:20:04;6.80;;;6.10;;
5688;SDS011;2869;50.432;8.680;2022-07-23T12:22:33;6.33;;;5.73;;
5688;SDS011;2869;50.432;8.680;2022-07-23T12:25:04;7.87;;;6.30;;
5688;SDS011;2869;50.432;8.680;2022-07-23T12:27:32;6.97;;;6.27;;
5688;SDS011;2869;50.432;8.680;2022-07-23T12:29:59;7.30;;;5.50;;
5688;SDS011;2869;50.432;8.680;2022-07-23T12:32:43;6.13;;;5.53;;
5688;SDS011;2869;50.432;8.680;2022-07-23T12:35:11;7.00;;;6.03;;
5688;SDS011;2869;50.432;8.680;2022-07-23T12:37:39;7.10;;;6.10;;
5688;SDS011;2869;50.432;8.680;2022-07-23T12:42:57;12.60;;;6.13;;
5688;SDS011;2869;50.432;8.680;2022-07-23T12:45:26;11.23;;;6.20;;
5688;SDS011;2869;50.432;8.680;2022-07-23T12:47:58;11.03;;;6.23;;
5688;SDS011;2869;50.432;8.680;2022-07-23T12:50:34;8.63;;;7.47;;
5688;SDS011;2869;50.432;8.680;2022-07-23T12:53:06;6.27;;;5.60;;
5688;SDS011;2869;50.432;8.680;2022-07-23T12:55:35;16.33;;;11.37;;
5688;SDS011;2869;50.432;8.680;2022-07-23T13:00:52;6.30;;;5.70;;
5688;SDS011;2869;50.432;8.680;2022-07-23T13:03:22;13.73;;;11.03;;
5688;SDS011;2869;50.432;8.680;2022-07-23T13:05:53;7.30;;;6.50;;
5688;SDS011;2869;50.432;8.680;2022-07-23T13:08:21;5.83;;;5.33;;
5688;SDS011;2869;50.432;8.680;2022-07-23T13:10:50;7.93;;;6.00;;
5688;SDS011;2869;50.432;8.680;2022-07-23T13:13:19;7.57;;;5.40;;
5688;SDS011;2869;50.432;8.680;2022-07-23T13:15:47;7.00;;;6.40;;
5688;SDS011;2869;50.432;8.680;2022-07-23T13:18:15;7.33;;;5.70;;
5688;SDS011;2869;50.432;8.680;2022-07-23T13:20:42;7.37;;;5.77;;
5688;SDS011;2869;50.432;8.680;2022-07-23T13:23:09;6.00;;;5.50;;
5688;SDS011;2869;50.432;8.680;2022-07-23T13:25:36;7.90;;;6.50;;
5688;SDS011;2869;50.432;8.680;2022-07-23T13:28:03;6.20;;;5.60;;
5688;SDS011;2869;50.432;8.680;2022-07-23T13:30:30;6.37;;;5.73;;
5688;SDS011;2869;50.432;8.680;2022-07-23T13:32:56;7.10;;;6.40;;
5688;SDS011;2869;50.432;8.680;2022-07-23T13:35:25;6.57;;;5.97;;
5688;SDS011;2869;50.432;8.680;2022-07-23T13:37:51;10.03;;;6.80;;
5688;SDS011;2869;50.432;8.680;2022-07-23T13:40:18;6.67;;;6.00;;
5688;SDS011;2869;50.432;8.680;2022-07-23T13:42:45;6.00;;;5.43;;
5688;SDS011;2869;50.432;8.680;2022-07-23T13:45:12;9.50;;;5.90;;
5688;SDS011;2869;50.432;8.680;2022-07-23T13:47:38;6.47;;;5.87;;
5688;SDS011;2869;50.432;8.680;2022-07-23T13:50:05;6.00;;;5.40;;
5688;SDS011;2869;50.432;8.680;2022-07-23T13:52:34;6.13;;;5.53;;
5688;SDS011;2869;50.432;8.680;2022-07-23T13:55:00;10.03;;;6.00;;
5688;SDS011;2869;50.432;8.680;2022-07-23T13:57:28;5.47;;;4.97;;
5688;SDS011;2869;50.432;8.680;2022-07-23T13:59:55;9.40;;;5.37;;
5688;SDS011;2869;50.432;8.680;2022-07-23T14:02:22;8.67;;;4.97;;
5688;SDS011;2869;50.432;8.680;2022-07-23T14:04:48;5.80;;;4.87;;
5688;SDS011;2869;50.432;8.680;2022-07-23T14:07:15;5.43;;;4.93;;
5688;SDS011;2869;50.432;8.680;2022-07-23T14:09:44;5.00;;;4.50;;
5688;SDS011;2869;50.432;8.680;2022-07-23T14:12:10;5.37;;;4.87;;
5688;SDS011;2869;50.432;8.680;2022-07-23T14:14:37;5.33;;;4.93;;
5688;SDS011;2869;50.432;8.680;2022-07-23T14:17:04;5.30;;;4.80;;
5688;SDS011;2869;50.432;8.680;2022-07-23T14:19:31;5.87;;;5.00;;
5688;SDS011;2869;50.432;8.680;2022-07-23T14:21:57;5.27;;;4.77;;
5688;SDS011;2869;50.432;8.680;2022-07-23T14:24:24;5.97;;;5.00;;
5688;SDS011;2869;50.432;8.680;2022-07-23T14:26:52;6.60;;;4.80;;
5688;SDS011;2869;50.432;8.680;2022-07-23T14:29:19;4.90;;;4.50;;
5688;SDS011;2869;50.432;8.680;2022-07-23T14:31:46;5.73;;;4.57;;
5688;SDS011;2869;50.432;8.680;2022-07-23T14:34:13;6.83;;;4.63;;
5688;SDS011;2869;50.432;8.680;2022-07-23T14:36:40;5.17;;;4.67;;
5688;SDS011;2869;50.432;8.680;2022-07-23T14:39:06;6.30;;;4.40;;
5688;SDS011;2869;50.432;8.680;2022-07-23T14:41:33;6.37;;;5.10;;
5688;SDS011;2869;50.432;8.680;2022-07-23T14:44:02;5.10;;;4.40;;
5688;SDS011;2869;50.432;8.680;2022-07-23T14:46:29;4.33;;;3.90;;
5688;SDS011;2869;50.432;8.680;2022-07-23T14:48:56;5.00;;;4.60;;
5688;SDS011;2869;50.432;8.680;2022-07-23T14:51:23;4.83;;;4.43;;
5688;SDS011;2869;50.432;8.680;2022-07-23T14:53:50;5.00;;;4.53;;
5688;SDS011;2869;50.432;8.680;2022-07-23T14:56:16;4.90;;;4.20;;
5688;SDS011;2869;50.432;8.680;2022-07-23T14:58:43;6.10;;;4.47;;
5688;SDS011;2869;50.432;8.680;2022-07-23T15:01:11;25.60;;;5.17;;
5688;SDS011;2869;50.432;8.680;2022-07-23T15:03:38;7.07;;;4.20;;
5688;SDS011;2869;50.432;8.680;2022-07-23T15:06:05;4.30;;;4.00;;
5688;SDS011;2869;50.432;8.680;2022-07-23T15:08:32;4.70;;;4.27;;
5688;SDS011;2869;50.432;8.680;2022-07-23T15:10:59;4.80;;;4.40;;
5688;SDS011;2869;50.432;8.680;2022-07-23T15:13:25;7.10;;;4.23;;
5688;SDS011;2869;50.432;8.680;2022-07-23T15:15:52;5.87;;;4.67;;
5688;SDS011;2869;50.432;8.680;2022-07-23T15:18:20;5.20;;;4.40;;
5688;SDS011;2869;50.432;8.680;2022-07-23T15:20:47;6.40;;;4.50;;
5688;SDS011;2869;50.432;8.680;2022-07-23T15:23:13;12.27;;;5.00;;
5688;SDS011;2869;50.432;8.680;2022-07-23T15:25:40;4.70;;;3.73;;